Time;durP1;ratioP1;P1;durP2;ratioP2;P2;SDS_P1;SDS_P2;PMS_P1;PMS_P2;Temp;Humidity;BMP_temperature;BMP_pressure;BME280_temperature;BME280_humidity;BME280_pressure;Samples;Min_cycle;Max_cycle;Signal;HPM_P1;HPM_P2
2023/05/29 00:00:44;;;;;;;7.32;4.30;;;13.90;99.90;;;;;;5003148;28;20215;-71
2023/05/29 00:03:11;;;;;;;8.77;4.38;;;13.90;99.90;;;;;;5005032;28;20173;-71
2023/05/29 00:05:37;;;;;;;6.20;4.30;;;13.90;99.90;;;;;;4999375;28;20184;-70
2023/05/29 00:08:05;;;;;;;9.05;4.75;;;13.80;99.90;;;;;;5002144;28;20185;-70
2023/05/29 00:10:31;;;;;;;8.93;4.70;;;13.80;99.90;;;;;;5003921;28;20196;-70
2023/05/29 00:12:57;;;;;;;6.88;4.50;;;13.70;99.90;;;;;;5000839;28;20299;-70
2023/05/29 00:15:23;;;;;;;6.93;4.95;;;13.60;99.90;;;;;;5000772;28;20346;-71
2023/05/29 00:17:49;;;;;;;6.63;4.20;;;13.60;99.90;;;;;;5022058;28;20271;-70
2023/05/29 00:20:15;;;;;;;6.32;4.28;;;13.50;99.90;;;;;;5009695;28;20207;-71
2023/05/29 00:22:41;;;;;;;6.85;4.60;;;13.50;99.90;;;;;;5008291;28;20181;-71
2023/05/29 00:25:08;;;;;;;9.02;4.95;;;13.50;99.90;;;;;;4999004;28;20244;-70
2023/05/29 00:27:35;;;;;;;6.32;4.53;;;13.50;99.90;;;;;;4997165;28;20605;-71
2023/05/29 00:30:01;;;;;;;6.60;4.25;;;13.40;99.90;;;;;;4997009;28;20208;-70
2023/05/29 00:32:27;;;;;;;8.35;4.65;;;13.40;99.90;;;;;;4997447;28;20200;-70
2023/05/29 00:34:53;;;;;;;9.45;4.53;;;13.30;99.90;;;;;;4997480;28;20173;-70
2023/05/29 00:37:23;;;;;;;10.23;4.97;;;13.20;99.90;;;;;;4977739;28;20192;-70
2023/05/29 00:39:49;;;;;;;7.72;4.72;;;13.20;99.90;;;;;;4977396;28;20219;-70
2023/05/29 00:42:15;;;;;;;7.22;4.53;;;13.10;99.90;;;;;;4977550;28;20647;-70
2023/05/29 00:44:41;;;;;;;8.88;4.57;;;13.10;99.90;;;;;;4975979;28;20276;-70
2023/05/29 00:47:07;;;;;;;8.68;5.28;;;13.00;99.90;;;;;;4977149;28;20189;-70
2023/05/29 00:49:35;;;;;;;9.13;4.68;;;13.00;99.90;;;;;;4975635;28;20224;-70
2023/05/29 00:52:03;;;;;;;10.02;4.97;;;12.90;99.90;;;;;;4976963;28;20207;-70
2023/05/29 00:54:29;;;;;;;8.50;5.00;;;12.80;99.90;;;;;;4991606;28;20188;-70
2023/05/29 00:56:58;;;;;;;7.30;4.82;;;12.80;99.90;;;;;;4975402;28;20232;-70
2023/05/29 00:59:29;;;;;;;8.35;4.88;;;12.80;99.90;;;;;;4991617;28;20181;-70
2023/05/29 01:01:57;;;;;;;10.65;4.53;;;12.70;99.90;;;;;;4991767;28;20197;-70
2023/05/29 01:04:25;;;;;;;11.13;5.18;;;12.70;99.90;;;;;;4976702;28;20177;-70
2023/05/29 01:06:51;;;;;;;6.68;4.70;;;12.60;99.90;;;;;;4992001;28;20187;-70
2023/05/29 01:09:17;;;;;;;11.93;5.20;;;12.60;99.90;;;;;;4995906;28;20215;-70
2023/05/29 01:12:15;;;;;;;9.43;4.90;;;12.60;99.90;;;;;;4995743;28;20224;-70
2023/05/29 01:15:05;;;;;;;10.93;4.63;;;12.60;99.90;;;;;;4942380;28;20193;-70
2023/05/29 01:17:49;;;;;;;10.80;4.35;;;12.60;99.90;;;;;;4994491;28;20183;-71
2023/05/29 01:20:32;;;;;;;10.15;4.72;;;12.50;99.90;;;;;;4995694;28;20695;-70
2023/05/29 01:23:14;;;;;;;12.90;5.75;;;12.50;99.90;;;;;;4994161;28;20219;-71
2023/05/29 01:26:02;;;;;;;9.55;4.50;;;12.40;99.90;;;;;;4995753;28;20247;-70
2023/05/29 01:28:37;;;;;;;7.38;4.60;;;12.30;99.90;;;;;;4995690;28;20191;-71
2023/05/29 01:31:04;;;;;;;10.68;4.90;;;12.40;99.90;;;;;;4994569;28;20291;-70
2023/05/29 01:33:30;;;;;;;10.43;5.22;;;12.30;99.90;;;;;;5010446;28;20644;-70
2023/05/29 01:35:55;;;;;;;7.43;4.85;;;12.30;99.90;;;;;;4991076;28;20219;-70
2023/05/29 01:38:21;;;;;;;8.95;5.13;;;12.20;99.90;;;;;;4995405;28;20703;-70
2023/05/29 01:40:48;;;;;;;8.00;5.15;;;12.10;99.90;;;;;;5010374;28;20225;-70
2023/05/29 01:43:13;;;;;;;10.98;5.82;;;12.10;99.90;;;;;;4996904;28;20192;-70
2023/05/29 01:45:40;;;;;;;9.02;5.45;;;12.00;99.90;;;;;;5011657;28;20253;-70
2023/05/29 01:48:07;;;;;;;9.50;5.18;;;12.00;99.90;;;;;;4996647;28;20168;-70
2023/05/29 01:50:34;;;;;;;17.08;5.50;;;11.90;99.90;;;;;;4995572;28;20235;-70
2023/05/29 01:52:59;;;;;;;13.90;5.25;;;11.80;99.90;;;;;;4995885;28;20168;-70
2023/05/29 01:55:25;;;;;;;14.98;5.70;;;11.80;99.90;;;;;;4995199;28;20648;-70
2023/05/29 01:57:52;;;;;;;10.07;5.88;;;11.80;99.90;;;;;;4993624;28;20184;-71
2023/05/29 02:00:18;;;;;;;10.30;4.82;;;11.70;99.90;;;;;;4994297;28;20246;-71
2023/05/29 02:02:44;;;;;;;13.55;5.40;;;11.70;99.90;;;;;;4994798;28;20184;-70
2023/05/29 02:05:10;;;;;;;11.38;5.35;;;11.70;99.90;;;;;;4989565;28;20193;-71
2023/05/29 02:07:36;;;;;;;8.68;5.10;;;11.70;99.90;;;;;;4994092;28;20203;-71
2023/05/29 02:10:04;;;;;;;14.88;5.45;;;11.60;99.90;;;;;;4993865;28;20563;-71
2023/05/29 02:12:29;;;;;;;15.43;5.03;;;11.60;99.90;;;;;;4992614;28;20200;-71
2023/05/29 02:14:56;;;;;;;15.60;4.82;;;11.60;99.90;;;;;;4992865;28;20184;-71
2023/05/29 02:17:22;;;;;;;13.00;5.38;;;11.50;99.90;;;;;;4993812;28;20169;-71
2023/05/29 02:19:48;;;;;;;9.07;4.53;;;11.40;99.90;;;;;;4993817;28;20195;-71
2023/05/29 02:22:14;;;;;;;11.52;5.60;;;11.40;99.90;;;;;;5009124;28;20671;-71
2023/05/29 02:24:40;;;;;;;10.57;4.88;;;11.40;99.90;;;;;;4992725;28;20231;-71
2023/05/29 02:27:06;;;;;;;14.57;4.97;;;11.40;99.90;;;;;;4993054;28;20645;-71
2023/05/29 02:29:32;;;;;;;15.88;5.80;;;11.40;99.90;;;;;;5008668;28;20247;-70
2023/05/29 02:31:58;;;;;;;16.20;5.00;;;11.30;99.90;;;;;;4994118;28;20200;-71
2023/05/29 02:34:24;;;;;;;17.27;4.75;;;11.40;99.90;;;;;;4993978;28;20185;-71
2023/05/29 02:36:54;;;;;;;10.38;4.93;;;11.40;99.90;;;;;;4989607;28;20184;-69
2023/05/29 02:39:20;;;;;;;18.15;5.22;;;11.40;99.90;;;;;;4992137;28;20164;-69
2023/05/29 02:41:46;;;;;;;13.55;5.55;;;11.40;99.90;;;;;;4993526;28;20180;-69
2023/05/29 02:44:12;;;;;;;16.45;5.15;;;11.30;99.90;;;;;;4993407;28;20172;-69
2023/05/29 02:46:38;;;;;;;18.02;5.10;;;11.30;99.90;;;;;;4993443;28;20255;-69
2023/05/29 02:49:03;;;;;;;14.27;5.10;;;11.30;99.90;;;;;;4993541;28;20544;-69
2023/05/29 02:51:29;;;;;;;14.77;4.93;;;11.20;99.90;;;;;;4993770;28;20282;-69
2023/05/29 02:53:55;;;;;;;14.82;5.13;;;11.20;99.90;;;;;;4993593;28;20605;-69
2023/05/29 02:56:24;;;;;;;19.13;4.53;;;11.20;99.90;;;;;;4948869;28;1260739;-69
2023/05/29 02:58:50;;;;;;;17.08;4.78;;;11.20;99.90;;;;;;4994231;28;20168;-69
2023/05/29 03:01:17;;;;;;;15.63;4.65;;;11.30;99.90;;;;;;4994028;28;20199;-69
2023/05/29 03:03:42;;;;;;;14.25;4.97;;;11.20;99.90;;;;;;4994202;28;20514;-69
2023/05/29 03:06:09;;;;;;;14.35;4.72;;;11.20;99.90;;;;;;4989477;28;20287;-69
2023/05/29 03:08:40;;;;;;;12.75;4.93;;;11.20;99.90;;;;;;5008930;28;20669;-69
2023/05/29 03:11:10;;;;;;;12.68;4.45;;;11.20;99.90;;;;;;4997802;28;20196;-69
2023/05/29 03:13:37;;;;;;;14.10;5.32;;;11.20;99.90;;;;;;4998420;28;20236;-69
2023/05/29 03:16:03;;;;;;;13.27;4.43;;;11.10;99.90;;;;;;4997873;28;20196;-69
2023/05/29 03:18:28;;;;;;;12.60;4.15;;;11.10;99.90;;;;;;4997908;28;20177;-69
2023/05/29 03:20:54;;;;;;;13.73;4.72;;;11.10;99.90;;;;;;4997731;28;20207;-69
2023/05/29 03:23:20;;;;;;;18.33;5.18;;;11.10;99.90;;;;;;5013354;28;20180;-69
2023/05/29 03:25:46;;;;;;;17.88;5.38;;;11.10;99.90;;;;;;4998093;28;20589;-69
2023/05/29 03:28:12;;;;;;;14.27;4.63;;;11.10;99.90;;;;;;4996489;28;20181;-69
2023/05/29 03:30:37;;;;;;;17.95;5.10;;;11.10;99.90;;;;;;4997465;28;20740;-69
2023/05/29 03:33:03;;;;;;;13.65;4.88;;;11.10;99.90;;;;;;4997925;28;20547;-69
2023/05/29 03:35:29;;;;;;;15.07;4.97;;;11.10;99.90;;;;;;4993363;28;20556;-69
2023/05/29 03:37:55;;;;;;;14.60;4.75;;;11.10;99.90;;;;;;4996259;28;20264;-69
2023/05/29 03:40:21;;;;;;;17.02;5.55;;;11.10;99.90;;;;;;4997351;28;20673;-69
2023/05/29 03:42:47;;;;;;;16.58;4.72;;;11.10;99.90;;;;;;4997493;28;20227;-69
2023/05/29 03:45:12;;;;;;;16.45;5.38;;;11.00;99.90;;;;;;4997458;28;20188;-70
2023/05/29 03:47:38;;;;;;;14.68;5.57;;;10.90;99.90;;;;;;4996351;28;20220;-69
2023/05/29 03:50:05;;;;;;;12.18;4.85;;;10.80;99.90;;;;;;4995872;28;20307;-69
2023/05/29 03:52:30;;;;;;;13.15;4.90;;;10.80;99.90;;;;;;4997190;28;20652;-69
2023/05/29 03:54:56;;;;;;;11.05;4.38;;;10.80;99.90;;;;;;4995831;28;20200;-69
2023/05/29 03:57:22;;;;;;;15.50;5.45;;;10.90;99.90;;;;;;4995784;28;20238;-69
2023/05/29 03:59:48;;;;;;;15.63;5.57;;;10.90;99.90;;;;;;4997080;28;20250;-69
2023/05/29 04:02:13;;;;;;;14.38;5.00;;;10.90;99.90;;;;;;4997212;28;20618;-69
2023/05/29 04:04:39;;;;;;;16.65;5.35;;;10.90;99.90;;;;;;4993522;28;20188;-69
2023/05/29 04:07:06;;;;;;;12.60;4.63;;;10.90;99.90;;;;;;4994976;28;20264;-69
2023/05/29 04:09:33;;;;;;;16.20;4.60;;;10.80;99.90;;;;;;4996901;28;20196;-69
2023/05/29 04:12:02;;;;;;;14.90;4.60;;;10.80;99.90;;;;;;4995581;28;20208;-69
2023/05/29 04:14:28;;;;;;;15.18;4.85;;;10.90;99.90;;;;;;4996886;28;20176;-69
2023/05/29 04:16:54;;;;;;;16.73;4.90;;;10.80;99.90;;;;;;4995507;28;20181;-69
2023/05/29 04:19:20;;;;;;;9.77;4.40;;;10.80;99.90;;;;;;4996723;28;20271;-69
2023/05/29 04:21:47;;;;;;;9.77;4.70;;;10.80;99.90;;;;;;4996884;28;20260;-69
2023/05/29 04:24:14;;;;;;;15.65;5.07;;;10.80;99.90;;;;;;4996821;28;20169;-69
2023/05/29 04:26:41;;;;;;;15.23;5.03;;;10.90;99.90;;;;;;4996942;28;20594;-69
2023/05/29 04:29:08;;;;;;;15.73;4.47;;;10.90;99.90;;;;;;4996600;28;20653;-69
2023/05/29 04:31:36;;;;;;;13.02;5.40;;;10.90;99.90;;;;;;4996377;28;20208;-69
2023/05/29 04:34:04;;;;;;;9.88;4.45;;;10.90;99.90;;;;;;4995394;28;20272;-69
2023/05/29 04:36:32;;;;;;;12.20;4.80;;;10.90;99.90;;;;;;4990648;28;20259;-69
2023/05/29 04:38:58;;;;;;;10.23;4.70;;;11.00;99.90;;;;;;4994959;28;20187;-69
2023/05/29 04:41:29;;;;;;;15.30;5.15;;;11.00;99.90;;;;;;4996323;28;20246;-69
2023/05/29 04:43:58;;;;;;;13.25;4.88;;;11.00;99.90;;;;;;4996580;28;20252;-69
2023/05/29 04:46:24;;;;;;;12.95;5.32;;;11.00;99.90;;;;;;4994984;28;20266;-69
2023/05/29 04:48:53;;;;;;;16.85;5.50;;;11.00;99.90;;;;;;4994882;28;20183;-69
2023/05/29 04:51:21;;;;;;;12.23;5.25;;;11.00;99.90;;;;;;4996124;28;20205;-69
2023/05/29 04:53:47;;;;;;;12.82;4.82;;;11.10;99.90;;;;;;4996065;28;20169;-69
2023/05/29 04:56:14;;;;;;;14.00;4.75;;;11.20;99.90;;;;;;4994726;28;20193;-69
2023/05/29 04:58:41;;;;;;;20.25;5.82;;;11.20;99.90;;;;;;4996159;28;20315;-69
2023/05/29 05:01:08;;;;;;;14.48;5.10;;;11.30;99.90;;;;;;4996553;28;20236;-69
2023/05/29 05:03:34;;;;;;;16.23;5.13;;;11.20;99.90;;;;;;4995993;28;20665;-69
2023/05/29 05:06:02;;;;;;;13.07;4.93;;;11.20;99.90;;;;;;5006258;28;20188;-69
2023/05/29 05:08:29;;;;;;;14.63;5.40;;;11.20;99.90;;;;;;4995728;28;20176;-70
2023/05/29 05:10:55;;;;;;;13.93;5.65;;;11.20;99.90;;;;;;4995757;28;20196;-69
2023/05/29 05:13:21;;;;;;;12.32;4.93;;;11.20;99.90;;;;;;4995863;28;20251;-69
2023/05/29 05:15:47;;;;;;;14.20;5.63;;;11.20;99.90;;;;;;4995583;28;20219;-69
2023/05/29 05:18:12;;;;;;;10.70;4.30;;;11.30;99.90;;;;;;4995703;28;20633;-69
2023/05/29 05:20:38;;;;;;;14.45;4.80;;;11.40;99.90;;;;;;4995960;28;20239;-69
2023/05/29 05:23:04;;;;;;;12.50;4.68;;;11.50;99.90;;;;;;4994307;28;20180;-69
2023/05/29 05:25:30;;;;;;;15.50;5.55;;;11.50;99.90;;;;;;4994041;28;20215;-69
2023/05/29 05:27:56;;;;;;;19.80;4.90;;;11.50;99.90;;;;;;4995813;28;20201;-69
2023/05/29 05:30:21;;;;;;;15.75;5.18;;;11.40;99.90;;;;;;4995640;28;20200;-69
2023/05/29 05:32:47;;;;;;;10.55;4.82;;;11.50;99.90;;;;;;5009590;28;20250;-69
2023/05/29 05:35:13;;;;;;;14.68;5.22;;;11.50;99.90;;;;;;4990940;28;20181;-68
2023/05/29 05:37:39;;;;;;;13.70;5.10;;;11.50;99.90;;;;;;4995483;28;20172;-69
2023/05/29 05:40:08;;;;;;;14.73;5.60;;;11.60;99.90;;;;;;4993697;28;20203;-68
2023/05/29 05:42:35;;;;;;;11.57;4.78;;;11.60;99.90;;;;;;4995197;28;20188;-69
2023/05/29 05:45:01;;;;;;;10.38;4.95;;;11.70;99.90;;;;;;4993935;28;20262;-68
2023/05/29 05:47:29;;;;;;;13.18;5.03;;;11.70;99.90;;;;;;4993964;28;20176;-68
2023/05/29 05:49:55;;;;;;;12.57;4.70;;;11.70;99.90;;;;;;4995606;28;20223;-69
2023/05/29 05:52:22;;;;;;;15.90;4.95;;;11.70;99.90;;;;;;4995208;28;20200;-69
2023/05/29 05:54:48;;;;;;;14.95;4.82;;;11.80;99.90;;;;;;4994903;28;20591;-69
2023/05/29 05:57:14;;;;;;;13.45;5.10;;;11.90;99.90;;;;;;4995109;28;20196;-69
2023/05/29 05:59:40;;;;;;;16.05;5.35;;;12.00;99.90;;;;;;4995725;28;20193;-70
2023/05/29 06:02:06;;;;;;;16.67;5.20;;;12.00;99.90;;;;;;4995165;28;20161;-70
2023/05/29 06:04:32;;;;;;;18.15;5.25;;;12.00;99.90;;;;;;4993420;28;20173;-70
2023/05/29 06:06:57;;;;;;;12.38;4.82;;;12.10;99.90;;;;;;4990353;28;20274;-70
2023/05/29 06:09:24;;;;;;;14.60;5.05;;;12.00;99.90;;;;;;4994538;28;20204;-70
2023/05/29 06:11:50;;;;;;;15.20;5.25;;;12.10;99.90;;;;;;4994510;28;20200;-70
2023/05/29 06:14:16;;;;;;;11.03;4.63;;;12.10;99.90;;;;;;4994851;28;20223;-70
2023/05/29 06:16:42;;;;;;;11.57;4.45;;;12.10;99.90;;;;;;4993854;28;20161;-70
2023/05/29 06:19:08;;;;;;;13.93;5.22;;;12.10;99.90;;;;;;4994771;28;20308;-70
2023/05/29 06:21:34;;;;;;;17.30;5.38;;;12.20;99.90;;;;;;4994474;28;20193;-69
2023/05/29 06:24:00;;;;;;;11.90;4.35;;;12.20;99.90;;;;;;4993098;28;20184;-70
2023/05/29 06:26:26;;;;;;;15.63;5.10;;;12.30;99.90;;;;;;4993155;28;20212;-70
2023/05/29 06:28:52;;;;;;;16.17;5.03;;;12.40;99.90;;;;;;4994429;28;20200;-69
2023/05/29 06:31:18;;;;;;;14.00;5.15;;;12.50;99.90;;;;;;4994358;28;20205;-69
2023/05/29 06:33:45;;;;;;;14.07;5.00;;;12.50;99.90;;;;;;4993037;28;20234;-70
2023/05/29 06:36:11;;;;;;;14.52;5.30;;;12.60;99.90;;;;;;4988367;28;20223;-70
2023/05/29 06:38:37;;;;;;;15.32;4.78;;;12.70;99.90;;;;;;4994659;28;20177;-70
2023/05/29 06:41:03;;;;;;;13.95;4.97;;;12.70;99.90;;;;;;4993054;28;20240;-70
2023/05/29 06:43:29;;;;;;;10.77;4.43;;;12.70;99.90;;;;;;4994125;28;20235;-70
2023/05/29 06:45:56;;;;;;;13.40;4.85;;;12.80;99.90;;;;;;4993073;28;20176;-70
2023/05/29 06:48:22;;;;;;;12.32;4.18;;;12.90;99.90;;;;;;4994389;28;20197;-70
2023/05/29 06:50:48;;;;;;;19.58;5.70;;;13.10;99.90;;;;;;4994274;28;20197;-70
2023/05/29 06:53:14;;;;;;;9.77;4.55;;;13.10;99.90;;;;;;5009444;28;20644;-69
2023/05/29 06:55:42;;;;;;;14.38;4.90;;;13.20;99.90;;;;;;4994094;28;20247;-71
2023/05/29 06:58:08;;;;;;;8.93;4.68;;;13.20;99.90;;;;;;4994151;28;20161;-70
2023/05/29 07:00:34;;;;;;;10.70;5.18;;;13.20;99.90;;;;;;4994183;28;20267;-69
2023/05/29 07:03:00;;;;;;;18.10;5.53;;;13.20;99.90;;;;;;4992762;28;20227;-67
2023/05/29 07:05:27;;;;;;;16.77;4.88;;;13.20;99.90;;;;;;5004667;28;20652;-68
2023/05/29 07:07:52;;;;;;;14.48;5.65;;;13.20;99.90;;;;;;4992882;28;20187;-67
2023/05/29 07:10:18;;;;;;;9.82;4.75;;;13.20;99.90;;;;;;4993959;28;20208;-67
2023/05/29 07:12:44;;;;;;;13.88;5.18;;;13.30;99.90;;;;;;4992722;28;20213;-67
2023/05/29 07:15:10;;;;;;;15.52;4.72;;;13.30;99.90;;;;;;4994079;28;20652;-67
2023/05/29 07:17:35;;;;;;;14.15;4.93;;;13.50;99.90;;;;;;4992715;28;20547;-68
2023/05/29 07:20:01;;;;;;;16.05;4.93;;;13.50;99.90;;;;;;4993953;28;20188;-68
2023/05/29 07:22:27;;;;;;;16.92;5.25;;;13.60;99.90;;;;;;4993846;28;20546;-67
2023/05/29 07:24:53;;;;;;;15.50;4.63;;;13.60;99.90;;;;;;4994005;28;20181;-67
2023/05/29 07:27:18;;;;;;;11.70;4.70;;;13.70;99.90;;;;;;4993926;28;20188;-67
2023/05/29 07:29:44;;;;;;;11.23;4.57;;;13.90;99.90;;;;;;4993971;28;20200;-67
2023/05/29 07:32:10;;;;;;;14.95;4.95;;;13.90;99.90;;;;;;4994296;28;20646;-67
2023/05/29 07:34:36;;;;;;;14.27;4.88;;;13.90;99.90;;;;;;4990659;28;20180;-67
2023/05/29 07:37:04;;;;;;;14.18;5.05;;;13.80;99.90;;;;;;4991356;28;20591;-67
2023/05/29 07:39:31;;;;;;;17.17;5.13;;;13.90;99.90;;;;;;4992475;28;20199;-69
2023/05/29 07:41:57;;;;;;;14.95;5.10;;;13.90;99.90;;;;;;4993875;28;20200;-67
2023/05/29 07:44:23;;;;;;;17.33;5.63;;;14.00;99.90;;;;;;4993720;28;20223;-67
2023/05/29 07:46:49;;;;;;;15.13;4.90;;;14.10;99.90;;;;;;4993993;28;20172;-66
2023/05/29 07:49:15;;;;;;;12.82;5.57;;;14.20;99.90;;;;;;4994102;28;20231;-67
2023/05/29 07:51:41;;;;;;;16.83;5.15;;;14.20;99.90;;;;;;4992705;28;20661;-69
2023/05/29 07:54:07;;;;;;;12.70;4.90;;;14.30;99.90;;;;;;4992329;28;20196;-69
2023/05/29 07:56:35;;;;;;;11.23;4.97;;;14.40;99.90;;;;;;4996285;28;20192;-69
2023/05/29 07:59:01;;;;;;;15.60;5.18;;;14.60;99.90;;;;;;4997627;28;20164;-69
2023/05/29 08:01:27;;;;;;;14.30;4.97;;;14.60;99.90;;;;;;4997758;28;20196;-69
2023/05/29 08:03:53;;;;;;;14.55;5.32;;;14.80;99.90;;;;;;4997509;28;20544;-69
2023/05/29 08:06:18;;;;;;;10.38;4.55;;;14.90;99.90;;;;;;4991229;28;20671;-69
2023/05/29 08:08:44;;;;;;;11.65;4.50;;;14.90;99.90;;;;;;5012000;28;20192;-70
2023/05/29 08:11:10;;;;;;;13.65;5.35;;;15.10;99.90;;;;;;4995545;28;20212;-67
2023/05/29 08:13:36;;;;;;;10.95;4.40;;;15.10;99.90;;;;;;4997219;28;20181;-67
2023/05/29 08:16:03;;;;;;;13.82;4.93;;;15.20;99.90;;;;;;4995639;28;20218;-67
2023/05/29 08:18:32;;;;;;;16.20;5.45;;;15.10;99.90;;;;;;4996746;28;20204;-67
2023/05/29 08:20:58;;;;;;;16.88;5.15;;;15.10;99.90;;;;;;4996670;28;20575;-67
2023/05/29 08:23:24;;;;;;;19.13;4.50;;;15.10;99.90;;;;;;4996849;28;20176;-67
2023/05/29 08:25:50;;;;;;;10.20;4.63;;;15.20;99.90;;;;;;4996642;28;20172;-67
2023/05/29 08:28:16;;;;;;;12.18;4.90;;;15.50;99.90;;;;;;4996493;28;20539;-67
2023/05/29 08:30:42;;;;;;;11.45;4.75;;;15.70;99.90;;;;;;5011684;28;20673;-67
2023/05/29 08:33:08;;;;;;;13.63;4.53;;;15.90;95.70;;;;;;4996547;28;20208;-67
2023/05/29 08:35:34;;;;;;;10.70;5.03;;;16.10;99.90;;;;;;4992071;28;20188;-68
2023/05/29 08:38:00;;;;;;;13.50;5.40;;;16.30;99.90;;;;;;4997125;28;20169;-67
2023/05/29 08:40:26;;;;;;;10.70;4.80;;;16.30;99.90;;;;;;4996382;28;20676;-67
2023/05/29 08:42:59;;;;;;;11.77;5.05;;;16.10;1.00;;;;;;5011310;28;20191;-67
2023/05/29 08:45:25;;;;;;;15.60;5.00;;;16.00;99.90;;;;;;4995195;28;20199;-70
2023/05/29 08:47:53;;;;;;;12.88;5.35;;;16.10;34.30;;;;;;4995187;28;20185;-67
2023/05/29 08:50:23;;;;;;;11.50;4.80;;;16.50;99.90;;;;;;4995082;28;20683;-67
2023/05/29 08:52:50;;;;;;;14.73;4.68;;;16.70;71.60;;;;;;4996718;28;20224;-67
2023/05/29 08:55:16;;;;;;;11.77;4.70;;;16.90;1.00;;;;;;4996184;28;20650;-67
2023/05/29 08:57:45;;;;;;;10.88;4.35;;;17.10;1.00;;;;;;4996111;28;20196;-67
2023/05/29 09:00:16;;;;;;;17.20;4.80;;;17.40;1.00;;;;;;4994771;28;20219;-67
2023/05/29 09:02:48;;;;;;;11.88;5.28;;;17.50;2.90;;;;;;4996648;28;20168;-67
2023/05/29 09:05:14;;;;;;;11.93;4.47;;;17.50;1.00;;;;;;4991400;28;20185;-67
2023/05/29 09:07:40;;;;;;;9.95;4.53;;;17.80;1.00;;;;;;4994901;28;20176;-68
2023/05/29 09:10:07;;;;;;;15.50;4.50;;;18.00;1.00;;;;;;4995974;28;20193;-67
2023/05/29 09:12:34;;;;;;;15.40;5.22;;;17.90;13.80;;;;;;4994507;28;20204;-67
2023/05/29 09:15:00;;;;;;;17.85;4.78;;;18.00;55.90;;;;;;4995936;28;20173;-67
2023/05/29 09:17:32;;;;;;;9.88;4.32;;;18.40;99.90;;;;;;4994480;28;20205;-67
2023/05/29 09:19:58;;;;;;;12.13;4.72;;;18.50;1.00;;;;;;4995976;28;20196;-67
2023/05/29 09:22:24;;;;;;;15.43;4.43;;;18.40;99.90;;;;;;4995630;28;20266;-68
2023/05/29 09:24:50;;;;;;;12.80;4.95;;;18.40;1.00;;;;;;5010637;28;20195;-67
2023/05/29 09:27:17;;;;;;;12.00;4.63;;;18.50;1.00;;;;;;4995738;28;20226;-67
2023/05/29 09:29:46;;;;;;;14.68;5.10;;;18.50;1.00;;;;;;4994168;28;20204;-67
2023/05/29 09:32:16;;;;;;;11.25;4.70;;;18.50;99.90;;;;;;4995329;28;20207;-67
2023/05/29 09:34:43;;;;;;;18.10;5.32;;;18.40;99.90;;;;;;4991499;28;20684;-67
2023/05/29 09:37:11;;;;;;;15.43;5.30;;;18.50;99.90;;;;;;4993910;28;20692;-67
2023/05/29 09:39:53;;;;;;;10.82;4.43;;;18.10;99.90;;;;;;4993861;28;20200;-67
2023/05/29 09:42:19;;;;;;;11.00;4.45;;;17.80;99.90;;;;;;4994107;28;20334;-67
2023/05/29 09:44:48;;;;;;;9.65;4.03;;;17.90;1.00;;;;;;4995467;28;20652;-67
2023/05/29 09:47:17;;;;;;;12.57;4.80;;;18.00;99.90;;;;;;4995167;28;20667;-68
2023/05/29 09:49:46;;;;;;;10.85;4.45;;;18.10;1.00;;;;;;4995281;28;20251;-68
2023/05/29 09:52:15;;;;;;;9.77;4.13;;;18.30;1.00;;;;;;4994989;28;20203;-68
2023/05/29 09:54:48;;;;;;;11.95;4.60;;;18.30;99.90;;;;;;4993787;28;20185;-68
2023/05/29 09:57:16;;;;;;;11.00;4.22;;;18.60;99.90;;;;;;5010085;28;20259;-68
2023/05/29 09:59:45;;;;;;;13.15;4.13;;;18.70;99.90;;;;;;4993730;28;20203;-68
2023/05/29 10:02:13;;;;;;;10.93;4.35;;;18.80;99.90;;;;;;4993718;28;20724;-68
2023/05/29 10:04:43;;;;;;;9.77;4.07;;;19.00;99.90;;;;;;4992772;28;20662;-68
2023/05/29 10:07:32;;;;;;;17.85;4.10;;;19.00;99.90;;;;;;4992075;28;20210;-67
2023/05/29 10:10:03;;;;;;;12.45;4.03;;;18.90;99.90;;;;;;4993287;28;20226;-68
2023/05/29 10:12:32;;;;;;;11.27;3.45;;;19.10;99.90;;;;;;4994902;28;20743;-68
2023/05/29 10:14:59;;;;;;;12.00;3.88;;;19.30;1.00;;;;;;4995287;28;20169;-68
2023/05/29 10:17:36;;;;;;;11.82;4.40;;;19.00;99.90;;;;;;4994570;28;20248;-68
2023/05/29 10:20:06;;;;;;;19.70;4.63;;;18.70;99.90;;;;;;4994959;28;20195;-68
2023/05/29 10:22:32;;;;;;;12.80;4.45;;;18.60;73.70;;;;;;4994656;28;20199;-68
2023/05/29 10:25:00;;;;;;;14.93;4.95;;;18.80;99.90;;;;;;4993316;28;20180;-68
2023/05/29 10:27:26;;;;;;;9.48;3.85;;;19.10;99.90;;;;;;4994495;28;20177;-68
2023/05/29 10:30:05;;;;;;;11.77;3.95;;;19.40;99.90;;;;;;4994622;28;20204;-69
2023/05/29 10:32:30;;;;;;;13.55;4.45;;;19.50;1.00;;;;;;4994854;28;20661;-69
2023/05/29 10:35:13;;;;;;;13.93;4.57;;;19.00;1.00;;;;;;4990082;28;20181;-69
2023/05/29 10:38:02;;;;;;;9.05;3.78;;;19.00;99.90;;;;;;4994747;28;20167;-68
2023/05/29 10:40:28;;;;;;;11.57;4.20;;;18.90;1.00;;;;;;4993296;28;20219;-70
2023/05/29 10:42:58;;;;;;;12.23;4.05;;;19.00;99.90;;;;;;4994748;28;20640;-69
2023/05/29 10:45:30;;;;;;;15.88;4.57;;;18.90;99.90;;;;;;4993099;28;20250;-69
2023/05/29 10:47:56;;;;;;;13.30;4.55;;;18.70;99.90;;;;;;4994634;28;20172;-69
2023/05/29 10:50:41;;;;;;;8.85;3.95;;;18.90;99.90;;;;;;4994191;28;20201;-68
2023/05/29 10:53:11;;;;;;;12.63;3.80;;;18.90;99.90;;;;;;4992955;28;20258;-69
2023/05/29 10:55:38;;;;;;;9.15;3.42;;;19.30;99.90;;;;;;4992715;28;20633;-70
2023/05/29 10:58:08;;;;;;;10.38;3.60;;;19.40;1.00;;;;;;4993026;28;20640;-69
2023/05/29 11:00:41;;;;;;;11.93;4.18;;;19.60;1.00;;;;;;4993209;28;20326;-69
2023/05/29 11:03:07;;;;;;;9.65;3.85;;;19.60;99.90;;;;;;4992952;28;20271;-68
2023/05/29 11:05:33;;;;;;;13.15;4.30;;;19.70;99.90;;;;;;4988572;28;20524;-68
2023/05/29 11:08:05;;;;;;;9.18;3.50;;;19.60;94.00;;;;;;4992893;28;20183;-68
2023/05/29 11:10:52;;;;;;;7.50;3.67;;;19.30;1.00;;;;;;4992854;28;20203;-68
2023/05/29 11:13:33;;;;;;;12.10;3.50;;;19.50;1.00;;;;;;4993036;28;20180;-69
2023/05/29 11:16:14;;;;;;;11.10;3.78;;;19.60;1.00;;;;;;4993039;28;20255;-70
2023/05/29 11:18:45;;;;;;;14.95;4.45;;;19.60;1.00;;;;;;4992765;28;20683;-70
2023/05/29 11:21:26;;;;;;;14.15;3.78;;;19.50;32.20;;;;;;4994531;28;20200;-71
2023/05/29 11:23:55;;;;;;;11.63;3.80;;;19.60;99.90;;;;;;4992837;28;20625;-70
2023/05/29 11:26:24;;;;;;;11.13;4.05;;;19.90;99.90;;;;;;4992655;28;20549;-70
2023/05/29 11:28:49;;;;;;;13.27;4.20;;;20.00;1.00;;;;;;4993985;28;20226;-70
2023/05/29 11:31:17;;;;;;;12.52;3.78;;;20.20;99.90;;;;;;4996732;28;20230;-69
2023/05/29 11:33:51;;;;;;;10.88;3.63;;;20.20;99.90;;;;;;4997867;28;20302;-70
2023/05/29 11:36:22;;;;;;;9.65;3.30;;;20.40;99.90;;;;;;4986283;28;20657;-70
2023/05/29 11:38:48;;;;;;;11.57;3.88;;;20.60;1.00;;;;;;4978313;28;20254;-69
2023/05/29 11:41:16;;;;;;;11.45;3.42;;;20.70;1.00;;;;;;4978043;28;20197;-69
2023/05/29 11:43:42;;;;;;;12.30;3.28;;;21.00;1.00;;;;;;4978087;28;20177;-69
2023/05/29 11:46:19;;;;;;;10.70;3.92;;;20.70;92.30;;;;;;4976913;28;20185;-69
2023/05/29 11:48:48;;;;;;;13.00;3.22;;;20.90;99.90;;;;;;4977319;28;20545;-69
2023/05/29 11:51:15;;;;;;;9.27;3.40;;;21.10;99.90;;;;;;4976580;28;20213;-69
2023/05/29 11:53:42;;;;;;;14.93;3.85;;;21.10;99.90;;;;;;4978876;28;20154;-68
2023/05/29 11:56:12;;;;;;;10.70;3.30;;;21.20;1.00;;;;;;4981326;28;20204;-68
2023/05/29 11:58:39;;;;;;;9.80;3.60;;;21.40;1.00;;;;;;4995143;28;20256;-69
2023/05/29 12:01:07;;;;;;;11.70;3.30;;;21.40;1.00;;;;;;4977875;28;20286;-71
2023/05/29 12:03:43;;;;;;;12.05;3.42;;;21.40;99.90;;;;;;4976520;28;20272;-69
2023/05/29 12:06:12;;;;;;;10.13;4.28;;;21.40;99.90;;;;;;5002502;28;20187;-70
2023/05/29 12:08:39;;;;;;;14.27;3.67;;;21.50;99.90;;;;;;4995869;28;20186;-69
2023/05/29 12:11:05;;;;;;;12.70;4.05;;;21.70;99.90;;;;;;4996806;28;20546;-69
2023/05/29 12:13:32;;;;;;;10.30;3.50;;;21.60;1.00;;;;;;4995739;28;20183;-69
2023/05/29 12:16:03;;;;;;;9.70;3.72;;;21.40;99.90;;;;;;4997322;28;20172;-69
2023/05/29 12:18:29;;;;;;;11.25;4.00;;;21.40;1.00;;;;;;4997036;28;20160;-69
2023/05/29 12:21:03;;;;;;;8.65;3.38;;;21.60;1.00;;;;;;4997115;28;20192;-69
2023/05/29 12:23:30;;;;;;;13.18;3.80;;;21.60;99.90;;;;;;4996878;28;20521;-69
2023/05/29 12:26:00;;;;;;;9.85;3.35;;;21.60;99.90;;;;;;5000149;28;20255;-68
2023/05/29 12:28:26;;;;;;;9.27;3.55;;;21.50;1.00;;;;;;4997722;28;20180;-69
2023/05/29 12:30:59;;;;;;;10.40;3.60;;;21.50;99.90;;;;;;4997152;28;20196;-70
2023/05/29 12:33:30;;;;;;;11.27;3.45;;;21.50;99.90;;;;;;4995990;28;20243;-69
2023/05/29 12:36:05;;;;;;;10.40;3.83;;;21.40;1.00;;;;;;4987705;28;20240;-69
2023/05/29 12:38:30;;;;;;;9.27;3.70;;;21.60;99.90;;;;;;4992440;28;20251;-69
2023/05/29 12:40:56;;;;;;;10.88;3.63;;;21.70;1.00;;;;;;4976725;28;20627;-69
2023/05/29 12:43:22;;;;;;;13.25;4.32;;;21.90;1.00;;;;;;4976164;28;20212;-70